Time;durP1;ratioP1;P1;durP2;ratioP2;P2;SDS_P1;SDS_P2;PMS_P1;PMS_P2;Temp;Humidity;BMP_temperature;BMP_pressure;BME280_temperature;BME280_humidity;BME280_pressure;Samples;Min_cycle;Max_cycle;Signal;HPM_P1;HPM_P2
2022/03/26 00:01:33;;;;;;;;;;;;;;;19.87;31.18;102054.27;101843;1340;76414;-85
2022/03/26 00:04:40;;;;;;;;;;;;;;;19.87;31.20;102051.98;101868;1337;61217;-83
2022/03/26 00:07:38;;;;;;;;;;;;;;;;;;;;;
2022/03/26 00:10:24;;;;;;;;;;;;;;;19.86;31.27;102057.15;102317;1334;74660;-85
2022/03/26 00:13:29;;;;;;;;;;;;;;;;;;;;;
2022/03/26 00:16:26;;;;;;;;;;;;;;;19.87;31.24;102056.25;102530;1329;61436;-84
2022/03/26 00:19:20;;;;;;;;;;;;;;;19.86;31.26;102055.58;102555;1329;61385;-79
2022/03/26 00:22:05;;;;;;;;;;;;;;;;;;;;;
2022/03/26 00:25:17;;;;;;;;;;;;;;;19.85;31.25;102053.47;102917;1322;74923;-88
2022/03/26 00:28:14;;;;;;;;;;;;;;;19.85;31.31;102053.84;103097;1321;61238;-84
2022/03/26 00:31:23;;;;;;;;;;;;;;;19.85;31.31;102051.35;104118;1313;61426;-83
2022/03/26 00:34:33;;;;;;;;;;;;;;;19.84;31.44;102047.60;104181;1314;72863;-83
2022/03/26 00:36:42;;;;;;;;;;;;;;;19.84;31.42;102045.11;104156;1314;75726;-82
2022/03/26 00:39:49;;;;;;;;;;;;;;;19.84;31.51;102046.20;104230;1313;61486;-84
2022/03/26 00:42:37;;;;;;;;;;;;;;;19.84;31.40;102048.15;103728;1319;61362;-82
2022/03/26 00:45:14;;;;;;;;;;;;;;;;;;;;;
2022/03/26 00:47:48;;;;;;;;;;;;;;;19.84;31.43;102044.79;103663;1319;75619;-83
2022/03/26 00:50:47;;;;;;;;;;;;;;;;;;;;;
2022/03/26 00:53:56;;;;;;;;;;;;;;;19.83;31.47;102046.63;103681;1319;61195;-84
2022/03/26 00:56:55;;;;;;;;;;;;;;;19.82;31.41;102047.70;103786;1319;73234;-84
2022/03/26 00:59:44;;;;;;;;;;;;;;;19.82;31.48;102044.84;103751;1319;74310;-83
2022/03/26 01:02:24;;;;;;;;;;;;;;;19.82;31.52;102045.77;103773;1319;61350;-82
2022/03/26 01:05:21;;;;;;;;;;;;;;;19.82;31.46;102046.67;103763;1319;61205;-85
2022/03/26 01:11:30;;;;;;;;;;;;;;;19.82;31.49;102055.79;103177;1323;74874;-82
2022/03/26 01:14:25;;;;;;;;;;;;;;;19.81;31.42;102052.77;103237;1322;61262;-85
2022/03/26 01:17:22;;;;;;;;;;;;;;;19.80;31.45;102049.58;102846;1326;61223;-82
2022/03/26 01:19:51;;;;;;;;;;;;;;;19.81;31.53;102053.49;102982;1324;73816;-85
2022/03/26 01:22:26;;;;;;;;;;;;;;;19.81;31.53;102055.63;102901;1324;73688;-81
2022/03/26 01:25:17;;;;;;;;;;;;;;;19.80;31.56;102056.17;102976;1325;61313;-84
2022/03/26 01:28:08;;;;;;;;;;;;;;;19.81;31.63;102058.48;102882;1324;61198;-85
2022/03/26 01:31:00;;;;;;;;;;;;;;;19.80;31.56;102057.07;102780;1324;71561;-86
2022/03/26 01:34:12;;;;;;;;;;;;;;;19.80;31.62;102057.25;102949;1324;74700;-84
2022/03/26 01:37:07;;;;;;;;;;;;;;;19.80;31.61;102057.45;102028;1337;61307;-83
2022/03/26 01:39:56;;;;;;;;;;;;;;;;;;;;;
2022/03/26 01:43:03;;;;;;;;;;;;;;;;;;;;;
2022/03/26 01:45:54;;;;;;;;;;;;;;;;;;;;;
2022/03/26 01:48:51;;;;;;;;;;;;;;;19.79;31.60;102056.79;102453;1328;61769;-82
2022/03/26 01:51:37;;;;;;;;;;;;;;;19.79;31.69;102061.06;102701;1328;61317;-82
2022/03/26 01:54:34;;;;;;;;;;;;;;;19.79;31.69;102061.08;102930;1322;72763;-84
2022/03/26 01:57:29;;;;;;;;;;;;;;;19.78;31.72;102061.09;103215;1322;75948;-83
2022/03/26 02:00:12;;;;;;;;;;;;;;;;;;;;;
2022/03/26 02:03:10;;;;;;;;;;;;;;;;;;;;;
2022/03/26 02:06:19;;;;;;;;;;;;;;;19.78;31.70;102055.21;103177;1322;71521;-85
2022/03/26 02:09:08;;;;;;;;;;;;;;;19.77;31.78;102057.55;103207;1321;74938;-83
2022/03/26 02:11:59;;;;;;;;;;;;;;;19.77;31.78;102056.11;103075;1322;61313;-83
2022/03/26 02:14:57;;;;;;;;;;;;;;;;;;;;;
2022/03/26 02:17:52;;;;;;;;;;;;;;;19.75;31.85;102058.16;104825;1305;72705;-82
2022/03/26 02:20:33;;;;;;;;;;;;;;;19.76;31.94;102060.83;104313;1313;75778;-85
2022/03/26 02:23:22;;;;;;;;;;;;;;;19.75;31.76;102059.05;104210;1313;61732;-81
2022/03/26 02:26:11;;;;;;;;;;;;;;;19.75;31.79;102060.83;104215;1314;61253;-87
2022/03/26 02:28:46;;;;;;;;;;;;;;;19.75;31.97;102062.29;104293;1313;73767;-82
2022/03/26 02:31:52;;;;;;;;;;;;;;;19.75;32.00;102059.96;104238;1313;73480;-84
2022/03/26 02:34:44;;;;;;;;;;;;;;;19.74;31.91;102060.71;104314;1313;61319;-83
2022/03/26 02:37:29;;;;;;;;;;;;;;;19.74;31.91;102057.86;104246;1313;61276;-82
2022/03/26 02:40:35;;;;;;;;;;;;;;;19.74;31.90;102060.73;103186;1320;70743;-84
2022/03/26 02:43:52;;;;;;;;;;;;;;;19.73;31.94;102054.52;103166;1323;73495;-82
2022/03/26 02:46:51;;;;;;;;;;;;;;;;;;;;;
2022/03/26 02:49:58;;;;;;;;;;;;;;;19.73;32.01;102052.36;102529;1329;61418;-84
2022/03/26 02:52:43;;;;;;;;;;;;;;;19.73;31.99;102056.48;102496;1330;72946;-85
2022/03/26 02:55:40;;;;;;;;;;;;;;;;;;;;;
2022/03/26 02:58:47;;;;;;;;;;;;;;;19.74;31.95;102052.35;102733;1325;61234;-82
2022/03/26 03:01:28;;;;;;;;;;;;;;;19.73;32.01;102049.15;103047;1325;61636;-82
2022/03/26 03:04:39;;;;;;;;;;;;;;;19.73;32.06;102051.65;102940;1325;71445;-85
2022/03/26 03:07:39;;;;;;;;;;;;;;;19.73;32.12;102054.71;102992;1325;76103;-82
2022/03/26 03:10:28;;;;;;;;;;;;;;;;;;;;;
2022/03/26 03:13:32;;;;;;;;;;;;;;;19.72;32.13;102054.54;103052;1324;61420;-83
2022/03/26 03:16:34;;;;;;;;;;;;;;;;;;;;;
2022/03/26 03:19:26;;;;;;;;;;;;;;;;;;;;;
2022/03/26 03:22:35;;;;;;;;;;;;;;;19.72;32.14;102053.66;103289;1322;61400;-88
2022/03/26 03:25:29;;;;;;;;;;;;;;;19.72;32.21;102051.35;102980;1324;61204;-82
2022/03/26 03:28:28;;;;;;;;;;;;;;;;;;;;;
2022/03/26 03:31:37;;;;;;;;;;;;;;;19.72;32.24;102054.23;102990;1325;75761;-85
2022/03/26 03:34:30;;;;;;;;;;;;;;;;;;;;;
2022/03/26 03:37:27;;;;;;;;;;;;;;;19.71;32.21;102050.52;101867;1340;61546;-86
2022/03/26 03:40:27;;;;;;;;;;;;;;;19.71;32.15;102049.80;101906;1337;72848;-83
2022/03/26 03:43:39;;;;;;;;;;;;;;;19.71;32.18;102051.95;101571;1348;76236;-84
2022/03/26 03:46:45;;;;;;;;;;;;;;;19.70;32.27;102051.78;101404;1348;61412;-86
2022/03/26 03:49:49;;;;;;;;;;;;;;;;;;;;;
2022/03/26 03:56:02;;;;;;;;;;;;;;;19.70;32.33;102054.51;101575;1346;74850;-85
2022/03/26 03:59:17;;;;;;;;;;;;;;;19.70;32.32;102051.46;101623;1346;61269;-79
2022/03/26 04:02:34;;;;;;;;;;;;;;;;;;;;;
2022/03/26 04:08:33;;;;;;;;;;;;;;;19.70;32.42;102056.27;101688;1344;75011;-84
2022/03/26 04:11:25;;;;;;;;;;;;;;;19.69;32.32;102058.09;101784;1341;61381;-81
2022/03/26 04:14:35;;;;;;;;;;;;;;;19.69;32.44;102055.23;102106;1335;61183;-84
2022/03/26 04:17:14;;;;;;;;;;;;;;;19.69;32.43;102058.45;102308;1335;72881;-87
2022/03/26 04:20:20;;;;;;;;;;;;;;;19.69;32.42;102061.86;102281;1329;74731;-82
2022/03/26 04:23:22;;;;;;;;;;;;;;;;;;;;;
2022/03/26 04:26:28;;;;;;;;;;;;;;;;;;;;;
2022/03/26 04:29:24;;;;;;;;;;;;;;;19.69;32.44;102062.77;102965;1319;73862;-84
2022/03/26 04:32:03;;;;;;;;;;;;;;;19.69;32.44;102061.67;103515;1319;76007;-81
2022/03/26 04:35:02;;;;;;;;;;;;;;;19.69;32.41;102062.23;102820;1325;61837;-84
2022/03/26 04:37:28;;;;;;;;;;;;;;;19.68;32.44;102066.52;102878;1325;62449;-84
2022/03/26 04:40:34;;;;;;;;;;;;;;;;;;;;;
2022/03/26 04:43:28;;;;;;;;;;;;;;;19.68;32.49;102063.15;103200;1322;75058;-83
2022/03/26 04:46:13;;;;;;;;;;;;;;;;;;;;;
2022/03/26 04:49:02;;;;;;;;;;;;;;;19.68;32.48;102057.63;102316;1335;61194;-83
2022/03/26 04:52:09;;;;;;;;;;;;;;;19.68;32.55;102061.20;102183;1334;73059;-82
2022/03/26 04:55:05;;;;;;;;;;;;;;;19.68;32.53;102061.02;102428;1333;76170;-85
2022/03/26 04:57:52;;;;;;;;;;;;;;;19.68;32.56;102059.41;101905;1338;61528;-84
2022/03/26 05:00:44;;;;;;;;;;;;;;;19.68;32.54;102058.36;101934;1338;61328;-83
2022/03/26 05:06:28;;;;;;;;;;;;;;;19.68;32.60;102057.46;101898;1338;76518;-85
2022/03/26 05:09:17;;;;;;;;;;;;;;;19.67;32.56;102059.09;101971;1337;61342;-82
2022/03/26 05:12:17;;;;;;;;;;;;;;;;;;;;;
2022/03/26 05:15:06;;;;;;;;;;;;;;;19.67;32.65;102056.96;101986;1338;74314;-84
2022/03/26 05:17:52;;;;;;;;;;;;;;;19.67;32.58;102057.29;102005;1338;75218;-86
2022/03/26 05:20:41;;;;;;;;;;;;;;;19.67;32.66;102061.06;102200;1334;61225;-83
2022/03/26 05:23:46;;;;;;;;;;;;;;;19.67;32.65;102059.62;102502;1328;61261;-83
2022/03/26 05:26:31;;;;;;;;;;;;;;;19.67;32.71;102059.83;102963;1320;73435;-82
2022/03/26 05:29:30;;;;;;;;;;;;;;;;;;;;;
2022/03/26 05:32:11;;;;;;;;;;;;;;;19.67;32.69;102068.21;102320;1334;61320;-82
2022/03/26 05:35:13;;;;;;;;;;;;;;;;;;;;;
2022/03/26 05:38:11;;;;;;;;;;;;;;;19.67;32.68;102069.10;102630;1328;73963;-78
2022/03/26 05:41:04;;;;;;;;;;;;;;;19.66;32.69;102066.98;102143;1335;76437;-84
2022/03/26 05:44:11;;;;;;;;;;;;;;;;;;;;;
2022/03/26 05:47:09;;;;;;;;;;;;;;;19.66;32.73;102070.73;102265;1333;61243;-84
2022/03/26 05:49:55;;;;;;;;;;;;;;;19.66;32.69;102069.48;101834;1339;71908;-83
2022/03/26 05:52:59;;;;;;;;;;;;;;;19.67;32.76;102071.44;102151;1334;72463;-84
2022/03/26 05:55:52;;;;;;;;;;;;;;;19.67;32.78;102069.99;102233;1334;61604;-83
2022/03/26 05:58:54;;;;;;;;;;;;;;;;;;;;;
2022/03/26 06:01:42;;;;;;;;;;;;;;;;;;;;;
2022/03/26 06:04:39;;;;;;;;;;;;;;;19.67;32.61;102076.92;102385;1334;73885;-84
2022/03/26 06:07:22;;;;;;;;;;;;;;;;;;;;;
2022/03/26 06:10:38;;;;;;;;;;;;;;;19.68;32.65;102085.82;103400;1320;61221;-82
2022/03/26 06:13:15;;;;;;;;;;;;;;;19.68;32.64;102083.51;103214;1322;72879;-82
2022/03/26 06:16:10;;;;;;;;;;;;;;;19.68;32.65;102081.71;103250;1322;74602;-82
2022/03/26 06:18:59;;;;;;;;;;;;;;;;;;;;;
2022/03/26 06:21:48;;;;;;;;;;;;;;;19.69;32.61;102084.71;104047;1314;61355;-84
2022/03/26 06:24:24;;;;;;;;;;;;;;;;;;;;;
2022/03/26 06:27:30;;;;;;;;;;;;;;;19.69;32.55;102085.95;104472;1305;73955;-84
2022/03/26 06:30:33;;;;;;;;;;;;;;;19.71;32.71;102083.20;104807;1305;61039;-83
2022/03/26 06:33:23;;;;;;;;;;;;;;;;;;;;;
2022/03/26 06:35:58;;;;;;;;;;;;;;;19.72;32.48;102085.48;104874;1305;73008;-82
2022/03/26 06:38:46;;;;;;;;;;;;;;;19.71;32.49;102089.78;104646;1306;74968;-83
2022/03/26 06:41:18;;;;;;;;;;;;;;;19.71;32.51;102088.37;104548;1306;61326;-83
2022/03/26 06:44:28;;;;;;;;;;;;;;;19.71;32.44;102084.80;104103;1314;61176;-85
2022/03/26 06:47:03;;;;;;;;;;;;;;;19.71;32.30;102086.59;103293;1314;1214680;-82
2022/03/26 06:49:41;;;;;;;;;;;;;;;19.71;32.26;102087.67;103911;1316;74816;-85
2022/03/26 06:52:23;;;;;;;;;;;;;;;19.71;32.07;102087.30;104064;1316;61262;-85
2022/03/26 06:55:09;;;;;;;;;;;;;;;19.73;32.24;102095.62;104061;1316;61235;-83
2022/03/26 06:57:45;;;;;;;;;;;;;;;19.74;32.13;102096.45;104140;1315;73858;-86
2022/03/26 07:01:30;;;;;;;;;;;;;;;19.75;32.21;102095.68;104087;1316;73574;-83
2022/03/26 07:03:40;;;;;;;;;;;;;;;19.77;32.20;102101.14;104166;1313;61382;-83
2022/03/26 07:06:34;;;;;;;;;;;;;;;19.79;32.08;102101.64;103940;1316;61588;-83
2022/03/26 07:09:20;;;;;;;;;;;;;;;19.79;32.16;102093.94;103364;1320;72851;-83
2022/03/26 07:11:51;;;;;;;;;;;;;;;19.81;32.15;102101.73;103294;1322;75572;-83
2022/03/26 07:14:38;;;;;;;;;;;;;;;19.82;31.98;102103.11;103127;1322;61528;-80
2022/03/26 07:17:16;;;;;;;;;;;;;;;19.81;31.98;102103.31;103269;1320;61401;-82
2022/03/26 07:20:04;;;;;;;;;;;;;;;19.83;31.98;102100.89;103228;1322;72931;-83
2022/03/26 07:23:44;;;;;;;;;;;;;;;19.83;31.93;102096.25;103922;1316;73628;-82
2022/03/26 07:25:56;;;;;;;;;;;;;;;19.85;31.97;102095.11;104293;1311;61109;-82
2022/03/26 07:29:08;;;;;;;;;;;;;;;19.86;32.05;102096.51;104257;1313;61170;-84
2022/03/26 07:32:13;;;;;;;;;;;;;;;19.88;31.80;102098.55;103550;1319;72974;-81
2022/03/26 07:35:09;;;;;;;;;;;;;;;;;;;;;
2022/03/26 07:38:03;;;;;;;;;;;;;;;;;;;;;
2022/03/26 07:40:58;;;;;;;;;;;;;;;;;;;;;
2022/03/26 07:43:42;;;;;;;;;;;;;;;19.96;31.65;102095.00;103537;1318;72724;-85
2022/03/26 07:46:48;;;;;;;;;;;;;;;19.97;31.76;102093.84;103662;1315;72379;-84
2022/03/26 07:49:39;;;;;;;;;;;;;;;;;;;;;
2022/03/26 07:53:19;;;;;;;;;;;;;;;19.98;31.74;102090.59;104186;1314;61188;-84
2022/03/26 07:55:48;;;;;;;;;;;;;;;19.98;31.67;102088.44;104084;1314;73122;-82
2022/03/26 07:58:32;;;;;;;;;;;;;;;19.98;31.75;102083.09;104179;1313;75030;-84
2022/03/26 08:01:09;;;;;;;;;;;;;;;19.97;31.90;102086.67;104170;1314;61328;-85
2022/03/26 08:03:49;;;;;;;;;;;;;;;19.97;31.84;102089.90;104046;1314;61807;-82
2022/03/26 08:06:18;;;;;;;;;;;;;;;19.97;31.86;102089.23;104170;1314;73802;-82
2022/03/26 08:09:06;;;;;;;;;;;;;;;19.97;31.71;102087.77;104376;1308;61295;-83
2022/03/26 08:11:45;;;;;;;;;;;;;;;19.97;31.88;102091.38;104610;1306;61177;-82
2022/03/26 08:14:34;;;;;;;;;;;;;;;19.97;32.01;102093.70;104763;1305;61210;-81
2022/03/26 08:17:28;;;;;;;;;;;;;;;19.97;31.93;102094.21;104782;1305;73944;-83
2022/03/26 08:20:04;;;;;;;;;;;;;;;19.97;31.90;102090.83;104744;1305;74721;-79
2022/03/26 08:22:43;;;;;;;;;;;;;;;19.97;31.89;102087.57;104480;1308;60186;-82
2022/03/26 08:28:36;;;;;;;;;;;;;;;19.98;32.15;102080.59;104653;1305;71917;-84
2022/03/26 08:31:10;;;;;;;;;;;;;;;19.98;32.15;102080.94;104595;1306;74694;-84
2022/03/26 08:34:07;;;;;;;;;;;;;;;19.98;32.11;102073.79;104549;1305;61238;-82
2022/03/26 08:36:37;;;;;;;;;;;;;;;19.98;32.18;102076.08;104769;1305;61621;-82
2022/03/26 08:39:24;;;;;;;;;;;;;;;19.99;32.03;102069.60;104562;1308;72938;-84
2022/03/26 08:41:53;;;;;;;;;;;;;;;20.00;32.26;102064.61;104560;1306;73850;-82
2022/03/26 08:44:20;;;;;;;;;;;;;;;20.00;32.21;102064.56;104341;1307;61170;-82
2022/03/26 08:46:51;;;;;;;;;;;;;;;20.01;32.52;102070.98;104653;1306;61367;-81
2022/03/26 08:49:45;;;;;;;;;;;;;;;20.02;32.42;102068.96;104608;1306;73009;-84
2022/03/26 08:52:23;;;;;;;;;;;;;;;20.03;32.37;102061.38;104774;1305;75840;-84
2022/03/26 08:55:12;;;;;;;;;;;;;;;20.05;32.61;102056.48;104783;1305;61177;-84
2022/03/26 08:57:58;;;;;;;;;;;;;;;20.06;32.67;102055.19;104740;1305;61475;-85
2022/03/26 09:00:45;;;;;;;;;;;;;;;20.07;32.81;102047.66;104455;1306;71572;-82
2022/03/26 09:03:24;;;;;;;;;;;;;;;;;;;;;
2022/03/26 09:06:20;;;;;;;;;;;;;;;;;;;;;
2022/03/26 09:09:09;;;;;;;;;;;;;;;;;;;;;
2022/03/26 09:12:14;;;;;;;;;;;;;;;20.19;33.40;102042.76;104686;1306;72671;-82
2022/03/26 09:15:12;;;;;;;;;;;;;;;;;;;;;
2022/03/26 09:17:54;;;;;;;;;;;;;;;;;;;;;
2022/03/26 09:20:25;;;;;;;;;;;;;;;20.31;33.84;102042.21;104635;1305;61042;-83
2022/03/26 09:23:21;;;;;;;;;;;;;;;20.34;33.91;102035.27;104673;1305;71447;-84
2022/03/26 09:25:47;;;;;;;;;;;;;;;20.35;33.97;102044.33;104608;1306;74335;-81
2022/03/26 09:28:21;;;;;;;;;;;;;;;20.36;34.05;102038.91;104671;1306;61381;-81
2022/03/26 09:31:27;;;;;;;;;;;;;;;20.37;33.90;102037.45;104655;1305;61319;-79
2022/03/26 09:33:58;;;;;;;;;;;;;;;20.38;34.04;102032.04;104746;1305;72745;-83
2022/03/26 09:36:29;;;;;;;;;;;;;;;20.38;34.06;102034.33;104684;1306;74657;-85
2022/03/26 09:39:17;;;;;;;;;;;;;;;20.38;34.07;102024.19;104691;1306;61264;-83
2022/03/26 09:41:54;;;;;;;;;;;;;;;20.37;34.29;102021.31;104627;1305;61702;-84
2022/03/26 09:44:21;;;;;;;;;;;;;;;20.37;34.05;102026.15;104648;1306;74047;-83
2022/03/26 09:47:10;;;;;;;;;;;;;;;20.36;34.14;102024.98;104356;1311;75780;-82
2022/03/26 09:49:52;;;;;;;;;;;;;;;20.34;34.23;102018.98;104367;1310;61284;-84
2022/03/26 09:52:28;;;;;;;;;;;;;;;20.33;34.03;102010.45;104199;1309;61522;-82
2022/03/26 09:55:21;;;;;;;;;;;;;;;20.32;34.22;102011.94;104266;1310;73204;-82
2022/03/26 09:57:52;;;;;;;;;;;;;;;20.32;34.24;102009.08;103826;1316;74804;-83
2022/03/26 10:00:53;;;;;;;;;;;;;;;;;;;;;
2022/03/26 10:03:29;;;;;;;;;;;;;;;20.32;34.34;102006.20;102976;1322;61196;-86
2022/03/26 10:06:05;;;;;;;;;;;;;;;20.31;34.44;101998.20;102923;1322;71901;-83
2022/03/26 10:08:41;;;;;;;;;;;;;;;20.31;34.42;101997.67;102900;1323;75771;-82
2022/03/26 10:11:29;;;;;;;;;;;;;;;20.32;34.51;101991.73;102896;1323;61409;-85
2022/03/26 10:13:58;;;;;;;;;;;;;;;20.33;34.56;101987.38;102966;1322;61617;-80
2022/03/26 10:16:31;;;;;;;;;;;;;;;20.34;34.51;101988.60;102933;1322;72845;-81
2022/03/26 10:19:07;;;;;;;;;;;;;;;20.35;34.54;101982.14;103002;1323;75933;-81
2022/03/26 10:22:07;;;;;;;;;;;;;;;20.35;34.61;101982.31;103014;1322;60232;-83
2022/03/26 10:24:44;;;;;;;;;;;;;;;20.34;34.57;101971.06;102999;1323;61135;-83
2022/03/26 10:27:14;;;;;;;;;;;;;;;20.34;34.59;101964.63;102955;1322;73149;-82
2022/03/26 10:30:07;;;;;;;;;;;;;;;;;;;;;
2022/03/26 10:33:02;;;;;;;;;;;;;;;20.33;34.67;101960.23;103317;1320;61437;-83
2022/03/26 10:35:38;;;;;;;;;;;;;;;20.32;34.73;101943.67;103813;1313;61181;-82
2022/03/26 10:38:15;;;;;;;;;;;;;;;20.32;34.72;101947.23;104125;1313;72989;-82
2022/03/26 10:41:10;;;;;;;;;;;;;;;20.32;34.73;101952.75;104227;1305;75694;-81
2022/03/26 10:43:36;;;;;;;;;;;;;;;20.33;34.74;101941.11;104520;1306;61705;-82
2022/03/26 10:46:09;;;;;;;;;;;;;;;20.33;34.74;101936.29;104383;1306;61330;-82
2022/03/26 10:48:49;;;;;;;;;;;;;;;20.32;34.70;101934.88;104559;1305;73859;-84
2022/03/26 10:51:20;;;;;;;;;;;;;;;20.33;34.73;101927.52;104302;1308;76751;-82
2022/03/26 10:53:49;;;;;;;;;;;;;;;20.33;34.67;101925.73;104501;1305;61281;-83
2022/03/26 10:56:56;;;;;;;;;;;;;;;20.31;34.72;101922.75;104575;1305;61189;-83
2022/03/26 10:59:47;;;;;;;;;;;;;;;20.31;34.59;101914.73;104577;1306;73236;-84
2022/03/26 11:02:29;;;;;;;;;;;;;;;20.31;34.79;101919.20;104158;1312;74730;-83
2022/03/26 11:04:59;;;;;;;;;;;;;;;20.32;34.67;101910.94;104064;1314;61425;-84
2022/03/26 11:07:39;;;;;;;;;;;;;;;20.32;34.79;101902.18;104076;1311;61839;-83
2022/03/26 11:10:27;;;;;;;;;;;;;;;;;;;;;
2022/03/26 11:12:56;;;;;;;;;;;;;;;20.32;34.81;101895.58;104235;1311;74844;-86
2022/03/26 11:15:48;;;;;;;;;;;;;;;20.32;34.81;101887.16;104249;1313;61201;-83
2022/03/26 11:19:08;;;;;;;;;;;;;;;20.30;35.05;101881.34;104354;1310;61313;-85
2022/03/26 11:21:54;;;;;;;;;;;;;;;20.29;34.78;101877.63;103633;1317;73996;-81
2022/03/26 11:24:40;;;;;;;;;;;;;;;20.29;34.95;101872.83;103784;1317;74289;-83
2022/03/26 11:28:09;;;;;;;;;;;;;;;20.30;34.92;101866.55;103740;1319;61158;-85
2022/03/26 11:31:10;;;;;;;;;;;;;;;;;;;;;
2022/03/26 11:34:00;;;;;;;;;;;;;;;20.29;34.89;101866.19;102631;1325;72902;-83
2022/03/26 11:36:40;;;;;;;;;;;;;;;20.29;34.82;101858.54;102734;1325;75030;-83
2022/03/26 11:39:35;;;;;;;;;;;;;;;20.28;34.87;101850.73;103038;1319;61335;-84
2022/03/26 11:42:18;;;;;;;;;;;;;;;20.27;34.82;101850.02;103546;1317;61551;-83
2022/03/26 11:51:16;;;;;;;;;;;;;;;20.28;34.78;101823.54;103619;1317;60720;-83
2022/03/26 11:54:23;;;;;;;;;;;;;;;20.28;34.81;101811.38;103649;1317;61358;-85
2022/03/26 11:57:11;;;;;;;;;;;;;;;20.29;34.78;101811.17;104051;1313;72875;-84
2022/03/26 11:59:57;;;;;;;;;;;;;;;;;;;;;
2022/03/26 12:02:50;;;;;;;;;;;;;;;20.28;34.64;101792.98;104331;1311;61353;-85
2022/03/26 12:09:01;;;;;;;;;;;;;;;20.21;34.51;101787.60;102829;1323;71572;-83
2022/03/26 12:12:02;;;;;;;;;;;;;;;20.19;34.50;101783.09;103291;1317;75900;-82
2022/03/26 12:14:34;;;;;;;;;;;;;;;20.16;34.38;101780.88;103455;1317;61808;-83
2022/03/26 12:17:30;;;;;;;;;;;;;;;;;;;;;
2022/03/26 12:19:50;;;;;;;;;;;;;;;20.14;34.37;101772.97;103470;1317;73765;-83
2022/03/26 12:22:33;;;;;;;;;;;;;;;20.13;34.33;101775.15;103389;1319;76050;-80
2022/03/26 12:25:28;;;;;;;;;;;;;;;;;;;;;
2022/03/26 12:27:55;;;;;;;;;;;;;;;20.10;34.29;101767.62;103224;1320;61159;-83
2022/03/26 12:30:24;;;;;;;;;;;;;;;20.09;34.34;101763.58;103490;1319;73677;-84
2022/03/26 12:33:23;;;;;;;;;;;;;;;20.08;34.19;101763.44;103361;1319;75029;-85
2022/03/26 12:36:14;;;;;;;;;;;;;;;;;;;;;
2022/03/26 12:38:57;;;;;;;;;;;;;;;20.06;34.18;101754.04;103288;1319;61472;-87
2022/03/26 12:41:40;;;;;;;;;;;;;;;20.05;34.23;101745.00;103588;1319;73870;-83
2022/03/26 12:44:12;;;;;;;;;;;;;;;20.05;34.08;101745.91;103853;1314;75968;-85
2022/03/26 12:46:47;;;;;;;;;;;;;;;20.04;34.10;101736.99;104273;1307;61280;-82
2022/03/26 12:49:18;;;;;;;;;;;;;;;20.03;34.21;101731.86;104489;1305;61404;-86
2022/03/26 12:51:55;;;;;;;;;;;;;;;20.03;34.17;101725.44;104541;1305;74166;-83
2022/03/26 12:54:32;;;;;;;;;;;;;;;20.03;34.07;101724.59;104449;1305;75694;-82
2022/03/26 12:57:22;;;;;;;;;;;;;;;20.02;34.09;101724.10;104605;1305;61292;-83
2022/03/26 13:00:11;;;;;;;;;;;;;;;20.01;34.06;101721.45;104573;1305;61036;-84
2022/03/26 13:02:47;;;;;;;;;;;;;;;20.01;33.98;101715.17;104529;1305;72701;-82
2022/03/26 13:05:13;;;;;;;;;;;;;;;20.01;33.95;101705.57;104439;1304;73894;-82
2022/03/26 13:07:56;;;;;;;;;;;;;;;20.00;34.04;101697.37;104470;1306;61282;-84
2022/03/26 13:10:51;;;;;;;;;;;;;;;20.00;33.88;101691.30;104613;1305;61186;-82
2022/03/26 13:13:29;;;;;;;;;;;;;;;20.00;33.90;101690.60;104671;1308;72952;-82
2022/03/26 13:16:17;;;;;;;;;;;;;;;19.99;33.95;101684.02;104699;1303;74857;-83
2022/03/26 13:19:00;;;;;;;;;;;;;;;;;;;;;
2022/03/26 13:21:55;;;;;;;;;;;;;;;19.98;33.86;101667.45;104573;1305;61156;-84
2022/03/26 13:24:46;;;;;;;;;;;;;;;19.98;33.75;101666.55;104590;1305;73738;-82
2022/03/26 13:27:27;;;;;;;;;;;;;;;;;;;;;
2022/03/26 13:30:28;;;;;;;;;;;;;;;19.98;33.72;101659.79;103876;1317;61160;-82
2022/03/26 13:33:02;;;;;;;;;;;;;;;19.98;33.71;101654.77;103828;1316;61273;-83
2022/03/26 13:35:32;;;;;;;;;;;;;;;19.99;33.74;101652.24;103767;1316;74808;-83
2022/03/26 13:38:00;;;;;;;;;;;;;;;19.98;33.75;101650.30;103712;1316;75382;-81
2022/03/26 13:40:54;;;;;;;;;;;;;;;19.99;33.73;101648.83;103740;1316;61287;-84
2022/03/26 13:43:23;;;;;;;;;;;;;;;19.99;33.71;101648.47;103612;1317;61426;-83
2022/03/26 13:46:01;;;;;;;;;;;;;;;19.99;33.66;101639.89;103702;1316;72924;-81
2022/03/26 13:48:30;;;;;;;;;;;;;;;20.00;33.66;101640.75;103689;1316;74777;-83
2022/03/26 13:51:18;;;;;;;;;;;;;;;20.00;33.63;101637.36;103841;1316;61229;-81
2022/03/26 13:53:53;;;;;;;;;;;;;;;20.00;33.69;101631.64;103727;1316;61201;-83
2022/03/26 13:56:36;;;;;;;;;;;;;;;20.00;33.61;101627.16;103796;1316;73026;-83
2022/03/26 13:59:14;;;;;;;;;;;;;;;20.00;33.65;101624.30;103560;1317;76274;-88
2022/03/26 14:01:42;;;;;;;;;;;;;;;20.00;33.58;101623.23;103701;1316;61429;-82
2022/03/26 14:04:31;;;;;;;;;;;;;;;;;;;;;
2022/03/26 14:07:17;;;;;;;;;;;;;;;20.00;33.59;101612.84;103701;1317;73289;-85
2022/03/26 14:13:11;;;;;;;;;;;;;;;20.01;33.48;101605.87;102781;1325;61287;-82
2022/03/26 14:16:07;;;;;;;;;;;;;;;;;;;;;
2022/03/26 14:19:22;;;;;;;;;;;;;;;20.00;33.54;101596.05;102803;1324;71718;-86
2022/03/26 14:22:16;;;;;;;;;;;;;;;20.00;33.50;101586.41;102986;1326;75225;-86
2022/03/26 14:25:02;;;;;;;;;;;;;;;19.99;33.54;101587.17;102973;1326;61533;-83
2022/03/26 14:27:48;;;;;;;;;;;;;;;19.99;33.53;101583.41;102958;1326;61569;-83
2022/03/26 14:30:31;;;;;;;;;;;;;;;20.00;33.53;101582.33;102953;1325;72909;-82
2022/03/26 14:33:11;;;;;;;;;;;;;;;;;;;;;
2022/03/26 14:36:14;;;;;;;;;;;;;;;19.99;33.48;101569.89;102993;1326;61626;-89
2022/03/26 14:39:21;;;;;;;;;;;;;;;19.99;33.46;101563.98;103025;1326;61419;-87
2022/03/26 14:42:03;;;;;;;;;;;;;;;19.98;33.52;101557.23;103001;1325;73898;-83
2022/03/26 14:45:18;;;;;;;;;;;;;;;19.98;33.49;101560.27;103295;1319;76460;-83
2022/03/26 14:48:03;;;;;;;;;;;;;;;19.98;33.56;101559.73;102947;1322;61290;-83
2022/03/26 14:50:38;;;;;;;;;;;;;;;19.98;33.60;101558.11;103393;1318;61183;-83
2022/03/26 14:53:06;;;;;;;;;;;;;;;19.98;33.54;101560.42;103785;1319;72803;-82
2022/03/26 14:55:52;;;;;;;;;;;;;;;;;;;;;
2022/03/26 14:58:49;;;;;;;;;;;;;;;;;;;;;
2022/03/26 15:01:48;;;;;;;;;;;;;;;19.98;33.54;101541.70;103282;1321;61399;-85
2022/03/26 15:04:23;;;;;;;;;;;;;;;19.98;33.55;101548.13;103232;1322;72330;-83
2022/03/26 15:07:18;;;;;;;;;;;;;;;19.97;33.51;101539.93;103251;1322;74895;-83
2022/03/26 15:10:04;;;;;;;;;;;;;;;19.97;33.49;101539.25;103335;1322;61259;-83
2022/03/26 15:15:42;;;;;;;;;;;;;;;19.97;33.41;101536.94;102917;1326;74248;-83
2022/03/26 15:18:33;;;;;;;;;;;;;;;19.96;33.47;101533.93;102904;1326;75829;-85
2022/03/26 15:21:41;;;;;;;;;;;;;;;19.95;33.51;101532.18;102488;1331;61221;-86
2022/03/26 15:24:25;;;;;;;;;;;;;;;19.95;33.38;101530.40;102125;1337;61638;-84
2022/03/26 15:27:37;;;;;;;;;;;;;;;;;;;;;
2022/03/26 15:30:30;;;;;;;;;;;;;;;19.95;33.43;101533.13;101929;1340;75191;-84
2022/03/26 15:33:36;;;;;;;;;;;;;;;19.94;33.36;101534.92;101962;1337;61616;-84
2022/03/26 15:37:00;;;;;;;;;;;;;;;19.94;33.45;101536.54;101918;1337;61746;-83
2022/03/26 15:40:26;;;;;;;;;;;;;;;19.95;33.40;101536.16;101687;1346;71594;-83
2022/03/26 15:43:06;;;;;;;;;;;;;;;;;;;;;
2022/03/26 15:46:02;;;;;;;;;;;;;;;19.95;33.38;101529.02;101406;1353;61459;-84
2022/03/26 15:52:31;;;;;;;;;;;;;;;;;;;;;
2022/03/26 15:55:11;;;;;;;;;;;;;;;19.94;33.37;101526.88;100899;1354;75957;-83
2022/03/26 15:58:03;;;;;;;;;;;;;;;;;;;;;
2022/03/26 16:01:06;;;;;;;;;;;;;;;;;;;;;
2022/03/26 16:04:42;;;;;;;;;;;;;;;19.94;33.32;101524.92;101822;1342;73379;-82
2022/03/26 16:07:23;;;;;;;;;;;;;;;19.94;33.31;101519.73;101361;1349;73625;-85
2022/03/26 16:10:19;;;;;;;;;;;;;;;;;;;;;
2022/03/26 16:13:28;;;;;;;;;;;;;;;19.94;33.33;101519.02;101229;1352;61585;-83
2022/03/26 16:16:42;;;;;;;;;;;;;;;19.95;33.37;101516.16;101261;1349;72768;-83
2022/03/26 16:19:20;;;;;;;;;;;;;;;;;;;;;
2022/03/26 16:21:59;;;;;;;;;;;;;;;;;;;;;
2022/03/26 16:24:45;;;;;;;;;;;;;;;19.94;33.34;101507.96;101736;1346;61424;-88